sensor_id;sensor_type;location;lat;lon;timestamp;temperature;humidity
22442;DHT22;11388;54.456;9.752;2022-08-03T00:00:53;19.00;99.90
22442;DHT22;11388;54.456;9.752;2022-08-03T00:03:19;18.90;99.90
22442;DHT22;11388;54.456;9.752;2022-08-03T00:05:45;18.90;99.90
22442;DHT22;11388;54.456;9.752;2022-08-03T00:08:11;18.80;99.90
22442;DHT22;11388;54.456;9.752;2022-08-03T00:10:36;18.80;99.90
22442;DHT22;11388;54.456;9.752;2022-08-03T00:13:03;18.80;99.90
22442;DHT22;11388;54.456;9.752;2022-08-03T00:15:29;18.80;99.90
22442;DHT22;11388;54.456;9.752;2022-08-03T00:17:54;18.80;99.90
22442;DHT22;11388;54.456;9.752;2022-08-03T00:20:20;18.70;99.90
22442;DHT22;11388;54.456;9.752;2022-08-03T00:22:46;18.70;99.90
22442;DHT22;11388;54.456;9.752;2022-08-03T00:25:12;18.80;99.90
22442;DHT22;11388;54.456;9.752;2022-08-03T00:27:38;18.80;99.90
22442;DHT22;11388;54.456;9.752;2022-08-03T00:30:04;18.80;99.90
22442;DHT22;11388;54.456;9.752;2022-08-03T00:32:30;18.70;99.90
22442;DHT22;11388;54.456;9.752;2022-08-03T00:34:56;18.70;99.90
22442;DHT22;11388;54.456;9.752;2022-08-03T00:37:21;18.70;99.90
22442;DHT22;11388;54.456;9.752;2022-08-03T00:39:47;18.70;99.90
22442;DHT22;11388;54.456;9.752;2022-08-03T00:42:13;18.70;99.90
22442;DHT22;11388;54.456;9.752;2022-08-03T00:44:40;18.70;99.90
22442;DHT22;11388;54.456;9.752;2022-08-03T00:47:06;18.70;99.90
22442;DHT22;11388;54.456;9.752;2022-08-03T00:49:32;18.70;99.90
22442;DHT22;11388;54.456;9.752;2022-08-03T00:51:59;18.70;99.90
22442;DHT22;11388;54.456;9.752;2022-08-03T00:54:25;18.60;99.90
22442;DHT22;11388;54.456;9.752;2022-08-03T00:56:52;18.70;99.90
22442;DHT22;11388;54.456;9.752;2022-08-03T00:59:18;18.70;99.90
22442;DHT22;11388;54.456;9.752;2022-08-03T01:01:43;18.60;99.90
22442;DHT22;11388;54.456;9.752;2022-08-03T01:04:09;18.70;99.90
22442;DHT22;11388;54.456;9.752;2022-08-03T01:07:41;18.80;99.90
22442;DHT22;11388;54.456;9.752;2022-08-03T01:09:49;18.70;99.90
22442;DHT22;11388;54.456;9.752;2022-08-03T01:14:59;18.80;99.90
22442;DHT22;11388;54.456;9.752;2022-08-03T01:17:33;18.80;99.90
22442;DHT22;11388;54.456;9.752;2022-08-03T01:20:06;18.80;99.90
22442;DHT22;11388;54.456;9.752;2022-08-03T01:30:46;18.80;99.90
22442;DHT22;11388;54.456;9.752;2022-08-03T01:33:27;18.60;99.90
22442;DHT22;11388;54.456;9.752;2022-08-03T01:36:03;18.50;99.90
22442;DHT22;11388;54.456;9.752;2022-08-03T01:38:41;18.50;99.90
22442;DHT22;11388;54.456;9.752;2022-08-03T01:41:11;18.50;99.90
22442;DHT22;11388;54.456;9.752;2022-08-03T01:43:41;18.50;99.90
22442;DHT22;11388;54.456;9.752;2022-08-03T01:46:07;18.40;99.90
22442;DHT22;11388;54.456;9.752;2022-08-03T01:48:36;18.30;99.90
22442;DHT22;11388;54.456;9.752;2022-08-03T01:51:02;18.40;99.90
22442;DHT22;11388;54.456;9.752;2022-08-03T01:53:30;18.30;99.90
22442;DHT22;11388;54.456;9.752;2022-08-03T01:55:59;18.40;99.90
22442;DHT22;11388;54.456;9.752;2022-08-03T01:58:26;18.40;99.90
22442;DHT22;11388;54.456;9.752;2022-08-03T02:00:54;18.40;99.90
22442;DHT22;11388;54.456;9.752;2022-08-03T02:03:26;18.40;99.90
22442;DHT22;11388;54.456;9.752;2022-08-03T02:05:54;18.50;99.90
22442;DHT22;11388;54.456;9.752;2022-08-03T02:08:21;18.60;99.90
22442;DHT22;11388;54.456;9.752;2022-08-03T02:10:49;18.50;99.90
22442;DHT22;11388;54.456;9.752;2022-08-03T02:13:16;18.60;99.90
22442;DHT22;11388;54.456;9.752;2022-08-03T02:15:43;18.60;99.90
22442;DHT22;11388;54.456;9.752;2022-08-03T02:18:10;18.70;99.90
22442;DHT22;11388;54.456;9.752;2022-08-03T02:20:37;18.70;99.90
22442;DHT22;11388;54.456;9.752;2022-08-03T02:23:04;18.70;99.90
22442;DHT22;11388;54.456;9.752;2022-08-03T02:25:33;18.80;99.90
22442;DHT22;11388;54.456;9.752;2022-08-03T02:28:08;18.70;99.90
22442;DHT22;11388;54.456;9.752;2022-08-03T02:30:37;18.70;99.90
22442;DHT22;11388;54.456;9.752;2022-08-03T02:33:10;18.70;99.90
22442;DHT22;11388;54.456;9.752;2022-08-03T02:35:38;18.70;99.90
22442;DHT22;11388;54.456;9.752;2022-08-03T02:38:07;18.70;99.90
22442;DHT22;11388;54.456;9.752;2022-08-03T02:40:35;18.70;99.90
22442;DHT22;11388;54.456;9.752;2022-08-03T02:43:06;18.50;99.90
22442;DHT22;11388;54.456;9.752;2022-08-03T02:45:35;18.40;99.90
22442;DHT22;11388;54.456;9.752;2022-08-03T02:48:04;18.40;99.90
22442;DHT22;11388;54.456;9.752;2022-08-03T02:50:32;18.40;99.90
22442;DHT22;11388;54.456;9.752;2022-08-03T02:53:00;18.40;99.90
22442;DHT22;11388;54.456;9.752;2022-08-03T02:55:27;18.50;99.90
22442;DHT22;11388;54.456;9.752;2022-08-03T02:57:54;18.50;99.90
22442;DHT22;11388;54.456;9.752;2022-08-03T03:00:21;18.50;99.90
22442;DHT22;11388;54.456;9.752;2022-08-03T03:02:48;18.60;99.90
22442;DHT22;11388;54.456;9.752;2022-08-03T03:05:14;18.60;99.90
22442;DHT22;11388;54.456;9.752;2022-08-03T03:07:41;18.70;99.90
22442;DHT22;11388;54.456;9.752;2022-08-03T03:10:08;18.60;99.90
22442;DHT22;11388;54.456;9.752;2022-08-03T03:12:38;18.60;99.90
22442;DHT22;11388;54.456;9.752;2022-08-03T03:15:05;18.60;99.90
22442;DHT22;11388;54.456;9.752;2022-08-03T03:17:44;18.60;99.90
22442;DHT22;11388;54.456;9.752;2022-08-03T03:20:10;18.60;99.90
22442;DHT22;11388;54.456;9.752;2022-08-03T03:22:37;18.60;99.90
22442;DHT22;11388;54.456;9.752;2022-08-03T03:25:04;18.60;99.90
22442;DHT22;11388;54.456;9.752;2022-08-03T03:30:37;18.60;99.90
22442;DHT22;11388;54.456;9.752;2022-08-03T03:33:03;18.70;99.90
22442;DHT22;11388;54.456;9.752;2022-08-03T03:35:29;18.70;99.90
22442;DHT22;11388;54.456;9.752;2022-08-03T03:37:56;18.70;99.90
22442;DHT22;11388;54.456;9.752;2022-08-03T03:40:21;18.70;99.90
22442;DHT22;11388;54.456;9.752;2022-08-03T03:42:48;18.80;99.90
22442;DHT22;11388;54.456;9.752;2022-08-03T03:45:14;18.80;99.90
22442;DHT22;11388;54.456;9.752;2022-08-03T03:47:40;18.70;99.90
22442;DHT22;11388;54.456;9.752;2022-08-03T03:50:06;18.70;99.90
22442;DHT22;11388;54.456;9.752;2022-08-03T03:52:33;18.70;99.90
22442;DHT22;11388;54.456;9.752;2022-08-03T03:54:59;18.80;99.90
22442;DHT22;11388;54.456;9.752;2022-08-03T03:57:25;18.70;99.90
22442;DHT22;11388;54.456;9.752;2022-08-03T03:59:50;18.80;99.90
22442;DHT22;11388;54.456;9.752;2022-08-03T04:02:16;18.70;99.90
22442;DHT22;11388;54.456;9.752;2022-08-03T04:04:42;18.70;99.90
22442;DHT22;11388;54.456;9.752;2022-08-03T04:07:26;18.70;99.90
22442;DHT22;11388;54.456;9.752;2022-08-03T04:10:19;18.80;99.90
22442;DHT22;11388;54.456;9.752;2022-08-03T04:13:08;18.80;99.90
22442;DHT22;11388;54.456;9.752;2022-08-03T04:15:37;18.80;99.90
22442;DHT22;11388;54.456;9.752;2022-08-03T04:18:07;18.80;99.90
22442;DHT22;11388;54.456;9.752;2022-08-03T04:20:36;18.90;99.90
22442;DHT22;11388;54.456;9.752;2022-08-03T04:23:03;18.90;99.90
22442;DHT22;11388;54.456;9.752;2022-08-03T04:25:33;18.90;99.90
22442;DHT22;11388;54.456;9.752;2022-08-03T04:28:01;19.00;99.90
22442;DHT22;11388;54.456;9.752;2022-08-03T04:30:27;19.10;99.90
22442;DHT22;11388;54.456;9.752;2022-08-03T04:32:55;19.20;99.90
22442;DHT22;11388;54.456;9.752;2022-08-03T04:35:23;19.20;99.90
22442;DHT22;11388;54.456;9.752;2022-08-03T04:37:51;19.30;99.90
22442;DHT22;11388;54.456;9.752;2022-08-03T04:40:39;19.30;99.90
22442;DHT22;11388;54.456;9.752;2022-08-03T04:43:07;19.40;99.90
22442;DHT22;11388;54.456;9.752;2022-08-03T04:45:35;19.40;99.90
22442;DHT22;11388;54.456;9.752;2022-08-03T04:48:01;19.40;99.90
22442;DHT22;11388;54.456;9.752;2022-08-03T04:50:28;19.50;99.90
22442;DHT22;11388;54.456;9.752;2022-08-03T04:52:55;19.50;99.90
22442;DHT22;11388;54.456;9.752;2022-08-03T04:55:28;19.60;99.90
22442;DHT22;11388;54.456;9.752;2022-08-03T04:57:55;19.70;99.90
22442;DHT22;11388;54.456;9.752;2022-08-03T05:00:22;19.80;99.90
22442;DHT22;11388;54.456;9.752;2022-08-03T05:02:47;19.80;99.90
22442;DHT22;11388;54.456;9.752;2022-08-03T05:05:14;19.80;99.90
22442;DHT22;11388;54.456;9.752;2022-08-03T05:07:41;19.80;99.90
22442;DHT22;11388;54.456;9.752;2022-08-03T05:10:08;19.90;99.90
22442;DHT22;11388;54.456;9.752;2022-08-03T05:12:34;19.90;99.90
22442;DHT22;11388;54.456;9.752;2022-08-03T05:15:01;20.00;99.90
22442;DHT22;11388;54.456;9.752;2022-08-03T05:17:27;20.10;99.90
22442;DHT22;11388;54.456;9.752;2022-08-03T05:19:53;20.20;99.90
22442;DHT22;11388;54.456;9.752;2022-08-03T05:22:19;20.10;99.90
22442;DHT22;11388;54.456;9.752;2022-08-03T05:24:45;20.20;99.90
22442;DHT22;11388;54.456;9.752;2022-08-03T05:27:11;20.30;99.90
22442;DHT22;11388;54.456;9.752;2022-08-03T05:29:42;20.30;99.90
22442;DHT22;11388;54.456;9.752;2022-08-03T05:32:08;20.40;99.90
22442;DHT22;11388;54.456;9.752;2022-08-03T05:34:33;20.50;99.90
22442;DHT22;11388;54.456;9.752;2022-08-03T05:36:59;20.50;99.90
22442;DHT22;11388;54.456;9.752;2022-08-03T05:39:25;20.50;99.90
22442;DHT22;11388;54.456;9.752;2022-08-03T05:42:28;20.50;99.90
22442;DHT22;11388;54.456;9.752;2022-08-03T05:45:12;20.50;99.90
22442;DHT22;11388;54.456;9.752;2022-08-03T05:47:45;20.60;99.90
22442;DHT22;11388;54.456;9.752;2022-08-03T05:50:12;20.70;99.90
22442;DHT22;11388;54.456;9.752;2022-08-03T05:52:40;20.80;99.90
22442;DHT22;11388;54.456;9.752;2022-08-03T05:55:15;20.80;99.90
22442;DHT22;11388;54.456;9.752;2022-08-03T05:57:41;20.90;99.90
22442;DHT22;11388;54.456;9.752;2022-08-03T06:00:12;20.90;99.90
22442;DHT22;11388;54.456;9.752;2022-08-03T06:02:38;20.90;99.90
22442;DHT22;11388;54.456;9.752;2022-08-03T06:05:04;21.00;99.90
22442;DHT22;11388;54.456;9.752;2022-08-03T06:07:30;21.00;99.90
22442;DHT22;11388;54.456;9.752;2022-08-03T06:09:57;21.10;99.90
22442;DHT22;11388;54.456;9.752;2022-08-03T06:12:28;21.10;99.90
22442;DHT22;11388;54.456;9.752;2022-08-03T06:14:54;21.20;99.90
22442;DHT22;11388;54.456;9.752;2022-08-03T06:17:43;21.20;99.90
22442;DHT22;11388;54.456;9.752;2022-08-03T06:20:36;21.20;99.90
22442;DHT22;11388;54.456;9.752;2022-08-03T06:23:16;21.30;99.90
22442;DHT22;11388;54.456;9.752;2022-08-03T06:25:42;21.20;99.90
22442;DHT22;11388;54.456;9.752;2022-08-03T06:28:10;21.30;99.90
22442;DHT22;11388;54.456;9.752;2022-08-03T06:30:40;21.40;99.90
22442;DHT22;11388;54.456;9.752;2022-08-03T06:33:06;21.50;99.90
22442;DHT22;11388;54.456;9.752;2022-08-03T06:35:32;21.40;99.90
22442;DHT22;11388;54.456;9.752;2022-08-03T06:37:58;21.50;99.90
22442;DHT22;11388;54.456;9.752;2022-08-03T06:40:24;21.50;99.90
22442;DHT22;11388;54.456;9.752;2022-08-03T06:43:01;21.50;99.90
22442;DHT22;11388;54.456;9.752;2022-08-03T06:45:29;21.60;99.90
22442;DHT22;11388;54.456;9.752;2022-08-03T06:48:04;21.80;99.90
22442;DHT22;11388;54.456;9.752;2022-08-03T06:50:30;21.80;99.90
22442;DHT22;11388;54.456;9.752;2022-08-03T06:53:00;21.90;99.90
22442;DHT22;11388;54.456;9.752;2022-08-03T06:55:29;22.00;99.90
22442;DHT22;11388;54.456;9.752;2022-08-03T06:57:55;22.20;99.90
22442;DHT22;11388;54.456;9.752;2022-08-03T07:00:21;22.20;99.90
22442;DHT22;11388;54.456;9.752;2022-08-03T07:02:47;22.30;99.90
22442;DHT22;11388;54.456;9.752;2022-08-03T07:05:14;22.40;99.90
22442;DHT22;11388;54.456;9.752;2022-08-03T07:07:40;22.40;99.90
22442;DHT22;11388;54.456;9.752;2022-08-03T07:10:09;22.60;99.90
22442;DHT22;11388;54.456;9.752;2022-08-03T07:12:36;22.60;99.90
22442;DHT22;11388;54.456;9.752;2022-08-03T07:15:04;22.70;99.90
22442;DHT22;11388;54.456;9.752;2022-08-03T07:17:32;22.70;99.90
22442;DHT22;11388;54.456;9.752;2022-08-03T07:19:58;22.80;99.90
22442;DHT22;11388;54.456;9.752;2022-08-03T07:22:24;22.90;99.90
22442;DHT22;11388;54.456;9.752;2022-08-03T07:25:00;23.00;99.90
22442;DHT22;11388;54.456;9.752;2022-08-03T07:27:27;23.00;99.90
22442;DHT22;11388;54.456;9.752;2022-08-03T07:29:54;23.10;99.90
22442;DHT22;11388;54.456;9.752;2022-08-03T07:32:20;23.00;99.90
22442;DHT22;11388;54.456;9.752;2022-08-03T07:34:46;23.20;99.90
22442;DHT22;11388;54.456;9.752;2022-08-03T07:37:15;23.30;99.90
22442;DHT22;11388;54.456;9.752;2022-08-03T07:39:41;23.40;99.90
22442;DHT22;11388;54.456;9.752;2022-08-03T07:42:07;23.40;99.90
22442;DHT22;11388;54.456;9.752;2022-08-03T07:44:33;23.50;99.90
22442;DHT22;11388;54.456;9.752;2022-08-03T07:46:59;23.60;99.90
22442;DHT22;11388;54.456;9.752;2022-08-03T07:49:24;23.60;99.90
22442;DHT22;11388;54.456;9.752;2022-08-03T07:51:50;23.70;99.90
22442;DHT22;11388;54.456;9.752;2022-08-03T07:54:36;23.70;99.90
22442;DHT22;11388;54.456;9.752;2022-08-03T07:57:02;23.60;99.90
22442;DHT22;11388;54.456;9.752;2022-08-03T07:59:28;23.50;99.90
22442;DHT22;11388;54.456;9.752;2022-08-03T08:01:53;23.70;99.90
22442;DHT22;11388;54.456;9.752;2022-08-03T08:04:29;23.80;99.90
22442;DHT22;11388;54.456;9.752;2022-08-03T08:06:54;23.90;99.90
22442;DHT22;11388;54.456;9.752;2022-08-03T08:09:20;23.90;99.90
22442;DHT22;11388;54.456;9.752;2022-08-03T08:11:46;23.90;99.90
22442;DHT22;11388;54.456;9.752;2022-08-03T08:14:19;23.90;99.90
22442;DHT22;11388;54.456;9.752;2022-08-03T08:16:45;24.10;99.90
22442;DHT22;11388;54.456;9.752;2022-08-03T08:19:12;24.30;99.90
22442;DHT22;11388;54.456;9.752;2022-08-03T08:21:41;24.30;99.90
22442;DHT22;11388;54.456;9.752;2022-08-03T08:24:07;24.40;99.90
22442;DHT22;11388;54.456;9.752;2022-08-03T08:26:33;24.40;99.90
22442;DHT22;11388;54.456;9.752;2022-08-03T08:28:59;24.50;99.90
22442;DHT22;11388;54.456;9.752;2022-08-03T08:31:27;24.60;99.90
22442;DHT22;11388;54.456;9.752;2022-08-03T08:33:55;24.50;99.90
22442;DHT22;11388;54.456;9.752;2022-08-03T08:36:32;24.60;99.90
22442;DHT22;11388;54.456;9.752;2022-08-03T08:38:58;24.70;99.90
22442;DHT22;11388;54.456;9.752;2022-08-03T08:41:24;24.90;99.90
22442;DHT22;11388;54.456;9.752;2022-08-03T08:44:00;24.90;99.90
22442;DHT22;11388;54.456;9.752;2022-08-03T08:46:26;25.00;99.90
22442;DHT22;11388;54.456;9.752;2022-08-03T08:48:58;25.00;99.90
22442;DHT22;11388;54.456;9.752;2022-08-03T08:51:30;25.00;99.90
22442;DHT22;11388;54.456;9.752;2022-08-03T08:54:08;25.00;99.90
22442;DHT22;11388;54.456;9.752;2022-08-03T08:56:35;25.00;99.90
22442;DHT22;11388;54.456;9.752;2022-08-03T08:59:03;25.10;99.90
22442;DHT22;11388;54.456;9.752;2022-08-03T09:01:40;25.10;99.90
22442;DHT22;11388;54.456;9.752;2022-08-03T09:04:06;25.30;99.90
22442;DHT22;11388;54.456;9.752;2022-08-03T09:06:33;25.20;99.90
22442;DHT22;11388;54.456;9.752;2022-08-03T09:09:00;25.20;99.90
22442;DHT22;11388;54.456;9.752;2022-08-03T09:11:25;25.40;99.90
22442;DHT22;11388;54.456;9.752;2022-08-03T09:13:51;25.40;99.90
22442;DHT22;11388;54.456;9.752;2022-08-03T09:16:19;25.30;99.90
22442;DHT22;11388;54.456;9.752;2022-08-03T09:18:50;25.40;99.90
22442;DHT22;11388;54.456;9.752;2022-08-03T09:23:49;25.50;99.90
22442;DHT22;11388;54.456;9.752;2022-08-03T09:26:26;25.50;99.90
22442;DHT22;11388;54.456;9.752;2022-08-03T09:28:57;25.60;99.90
22442;DHT22;11388;54.456;9.752;2022-08-03T09:31:34;25.70;99.90
22442;DHT22;11388;54.456;9.752;2022-08-03T09:34:05;25.80;99.90
22442;DHT22;11388;54.456;9.752;2022-08-03T09:36:50;25.70;99.90
22442;DHT22;11388;54.456;9.752;2022-08-03T09:39:18;25.70;99.90
22442;DHT22;11388;54.456;9.752;2022-08-03T09:42:10;25.60;99.90
22442;DHT22;11388;54.456;9.752;2022-08-03T09:44:39;25.60;99.90
22442;DHT22;11388;54.456;9.752;2022-08-03T09:47:11;25.50;99.90
22442;DHT22;11388;54.456;9.752;2022-08-03T09:49:58;25.60;99.90
22442;DHT22;11388;54.456;9.752;2022-08-03T09:52:31;25.60;99.90
22442;DHT22;11388;54.456;9.752;2022-08-03T09:54:58;25.70;99.90
22442;DHT22;11388;54.456;9.752;2022-08-03T09:57:32;25.70;99.90
22442;DHT22;11388;54.456;9.752;2022-08-03T10:00:09;25.80;99.90
22442;DHT22;11388;54.456;9.752;2022-08-03T10:02:36;26.00;99.90
22442;DHT22;11388;54.456;9.752;2022-08-03T10:05:03;26.00;99.90
22442;DHT22;11388;54.456;9.752;2022-08-03T10:07:29;26.10;99.90
22442;DHT22;11388;54.456;9.752;2022-08-03T10:10:02;26.10;99.90
22442;DHT22;11388;54.456;9.752;2022-08-03T10:12:28;26.20;99.90
22442;DHT22;11388;54.456;9.752;2022-08-03T10:14:54;26.30;99.90
22442;DHT22;11388;54.456;9.752;2022-08-03T10:17:21;26.30;99.90
22442;DHT22;11388;54.456;9.752;2022-08-03T10:19:47;26.40;99.90
22442;DHT22;11388;54.456;9.752;2022-08-03T10:22:25;26.20;99.90
22442;DHT22;11388;54.456;9.752;2022-08-03T10:25:05;26.30;99.90
22442;DHT22;11388;54.456;9.752;2022-08-03T10:27:34;26.50;99.90
22442;DHT22;11388;54.456;9.752;2022-08-03T10:30:02;26.60;99.90
22442;DHT22;11388;54.456;9.752;2022-08-03T10:32:42;26.50;99.90
22442;DHT22;11388;54.456;9.752;2022-08-03T10:35:12;26.30;99.90
22442;DHT22;11388;54.456;9.752;2022-08-03T10:37:47;26.30;99.90
22442;DHT22;11388;54.456;9.752;2022-08-03T10:40:15;26.50;99.90
22442;DHT22;11388;54.456;9.752;2022-08-03T10:42:44;26.50;99.90
22442;DHT22;11388;54.456;9.752;2022-08-03T10:45:19;26.50;99.90
22442;DHT22;11388;54.456;9.752;2022-08-03T10:47:49;26.50;99.90
22442;DHT22;11388;54.456;9.752;2022-08-03T10:50:16;26.60;99.90
22442;DHT22;11388;54.456;9.752;2022-08-03T10:52:56;26.50;99.90
22442;DHT22;11388;54.456;9.752;2022-08-03T10:55:31;26.40;99.90
22442;DHT22;11388;54.456;9.752;2022-08-03T11:01:15;26.50;99.90
22442;DHT22;11388;54.456;9.752;2022-08-03T11:06:21;26.40;99.90
22442;DHT22;11388;54.456;9.752;2022-08-03T11:08:48;26.50;99.90
22442;DHT22;11388;54.456;9.752;2022-08-03T11:16:28;26.70;99.90
22442;DHT22;11388;54.456;9.752;2022-08-03T11:18:56;26.90;99.90
22442;DHT22;11388;54.456;9.752;2022-08-03T11:27:26;26.80;99.90
22442;DHT22;11388;54.456;9.752;2022-08-03T11:30:05;26.90;99.90
22442;DHT22;11388;54.456;9.752;2022-08-03T11:35:10;27.00;99.90
22442;DHT22;11388;54.456;9.752;2022-08-03T11:40:44;27.30;99.90
22442;DHT22;11388;54.456;9.752;2022-08-03T11:45:58;27.60;99.90
22442;DHT22;11388;54.456;9.752;2022-08-03T11:48:33;27.40;99.90
22442;DHT22;11388;54.456;9.752;2022-08-03T11:51:01;27.30;99.90
22442;DHT22;11388;54.456;9.752;2022-08-03T11:53:27;27.50;99.90
22442;DHT22;11388;54.456;9.752;2022-08-03T11:55:53;27.80;99.90
22442;DHT22;11388;54.456;9.752;2022-08-03T11:58:20;28.10;99.90
22442;DHT22;11388;54.456;9.752;2022-08-03T12:00:49;28.10;99.90
22442;DHT22;11388;54.456;9.752;2022-08-03T12:03:17;28.00;99.90
22442;DHT22;11388;54.456;9.752;2022-08-03T12:05:49;27.40;99.90
22442;DHT22;11388;54.456;9.752;2022-08-03T12:11:16;27.70;99.90
22442;DHT22;11388;54.456;9.752;2022-08-03T12:13:44;28.00;99.90
22442;DHT22;11388;54.456;9.752;2022-08-03T12:16:23;28.20;99.90
22442;DHT22;11388;54.456;9.752;2022-08-03T12:18:56;28.30;99.90
22442;DHT22;11388;54.456;9.752;2022-08-03T12:21:23;28.30;99.90
22442;DHT22;11388;54.456;9.752;2022-08-03T12:24:11;28.80;99.90
22442;DHT22;11388;54.456;9.752;2022-08-03T12:26:47;29.10;99.90
22442;DHT22;11388;54.456;9.752;2022-08-03T12:29:21;29.20;99.90
22442;DHT22;11388;54.456;9.752;2022-08-03T12:31:47;29.40;99.90
22442;DHT22;11388;54.456;9.752;2022-08-03T12:34:14;29.60;99.90
22442;DHT22;11388;54.456;9.752;2022-08-03T12:36:50;29.80;99.90
22442;DHT22;11388;54.456;9.752;2022-08-03T12:39:17;30.30;99.90
22442;DHT22;11388;54.456;9.752;2022-08-03T12:41:52;30.70;99.90
22442;DHT22;11388;54.456;9.752;2022-08-03T12:44:28;31.10;99.90
22442;DHT22;11388;54.456;9.752;2022-08-03T12:46:56;30.20;99.90
22442;DHT22;11388;54.456;9.752;2022-08-03T12:49:23;31.20;99.90
22442;DHT22;11388;54.456;9.752;2022-08-03T12:51:54;30.90;99.90
22442;DHT22;11388;54.456;9.752;2022-08-03T12:54:24;32.30;99.90
22442;DHT22;11388;54.456;9.752;2022-08-03T12:59:34;32.80;99.90
22442;DHT22;11388;54.456;9.752;2022-08-03T13:02:01;32.60;99.90
22442;DHT22;11388;54.456;9.752;2022-08-03T13:04:32;33.40;99.90
22442;DHT22;11388;54.456;9.752;2022-08-03T13:06:59;31.90;99.90
22442;DHT22;11388;54.456;9.752;2022-08-03T13:10:25;32.80;99.90
22442;DHT22;11388;54.456;9.752;2022-08-03T13:12:47;32.10;99.90
22442;DHT22;11388;54.456;9.752;2022-08-03T13:15:38;31.90;99.90
22442;DHT22;11388;54.456;9.752;2022-08-03T13:18:10;31.80;99.90
22442;DHT22;11388;54.456;9.752;2022-08-03T13:20:52;31.90;99.90
22442;DHT22;11388;54.456;9.752;2022-08-03T13:26:43;35.20;99.90
22442;DHT22;11388;54.456;9.752;2022-08-03T13:29:11;37.10;99.90
22442;DHT22;11388;54.456;9.752;2022-08-03T13:31:36;37.20;99.70
22442;DHT22;11388;54.456;9.752;2022-08-03T13:40:42;37.60;99.90
22442;DHT22;11388;54.456;9.752;2022-08-03T13:46:23;40.70;95.40
22442;DHT22;11388;54.456;9.752;2022-08-03T13:48:51;38.70;96.60
22442;DHT22;11388;54.456;9.752;2022-08-03T13:51:26;37.40;97.10
22442;DHT22;11388;54.456;9.752;2022-08-03T13:54:06;38.40;96.60
22442;DHT22;11388;54.456;9.752;2022-08-03T13:56:32;36.10;98.00
22442;DHT22;11388;54.456;9.752;2022-08-03T13:58:58;36.10;98.30
22442;DHT22;11388;54.456;9.752;2022-08-03T14:01:24;35.40;98.60
22442;DHT22;11388;54.456;9.752;2022-08-03T14:03:51;33.90;99.90
22442;DHT22;11388;54.456;9.752;2022-08-03T14:06:23;33.20;99.90
22442;DHT22;11388;54.456;9.752;2022-08-03T14:08:49;33.20;99.90
22442;DHT22;11388;54.456;9.752;2022-08-03T14:11:16;35.10;99.90
22442;DHT22;11388;54.456;9.752;2022-08-03T14:13:53;37.10;99.00
22442;DHT22;11388;54.456;9.752;2022-08-03T14:16:25;37.70;98.50
22442;DHT22;11388;54.456;9.752;2022-08-03T14:19:19;37.40;97.40
22442;DHT22;11388;54.456;9.752;2022-08-03T14:22:11;37.80;96.90
22442;DHT22;11388;54.456;9.752;2022-08-03T14:24:44;38.20;97.00
22442;DHT22;11388;54.456;9.752;2022-08-03T14:30:43;37.40;97.10
22442;DHT22;11388;54.456;9.752;2022-08-03T14:33:18;35.60;99.10
22442;DHT22;11388;54.456;9.752;2022-08-03T14:35:44;34.90;99.50
22442;DHT22;11388;54.456;9.752;2022-08-03T14:38:13;33.00;99.90
22442;DHT22;11388;54.456;9.752;2022-08-03T14:40:42;32.40;99.90
22442;DHT22;11388;54.456;9.752;2022-08-03T14:43:09;31.80;99.90
22442;DHT22;11388;54.456;9.752;2022-08-03T14:45:38;31.30;99.90
22442;DHT22;11388;54.456;9.752;2022-08-03T14:48:04;30.70;99.90
22442;DHT22;11388;54.456;9.752;2022-08-03T14:50:30;30.70;99.90
22442;DHT22;11388;54.456;9.752;2022-08-03T14:52:56;31.00;99.90
22442;DHT22;11388;54.456;9.752;2022-08-03T14:55:22;30.80;99.90
22442;DHT22;11388;54.456;9.752;2022-08-03T14:57:48;30.70;99.90
22442;DHT22;11388;54.456;9.752;2022-08-03T15:00:21;31.00;99.90
22442;DHT22;11388;54.456;9.752;2022-08-03T15:02:47;30.60;99.90
22442;DHT22;11388;54.456;9.752;2022-08-03T15:05:22;30.30;99.90
22442;DHT22;11388;54.456;9.752;2022-08-03T15:07:48;30.20;99.90
22442;DHT22;11388;54.456;9.752;2022-08-03T15:10:14;30.20;99.90
22442;DHT22;11388;54.456;9.752;2022-08-03T15:12:39;30.30;99.90
22442;DHT22;11388;54.456;9.752;2022-08-03T15:15:05;30.50;99.90
22442;DHT22;11388;54.456;9.752;2022-08-03T15:17:34;30.60;99.90
22442;DHT22;11388;54.456;9.752;2022-08-03T15:20:00;30.50;99.90
22442;DHT22;11388;54.456;9.752;2022-08-03T15:22:28;30.40;99.90
22442;DHT22;11388;54.456;9.752;2022-08-03T15:25:14;30.20;99.90
22442;DHT22;11388;54.456;9.752;2022-08-03T15:27:40;30.10;99.90
22442;DHT22;11388;54.456;9.752;2022-08-03T15:30:20;30.20;99.90
22442;DHT22;11388;54.456;9.752;2022-08-03T15:32:54;30.30;99.90
22442;DHT22;11388;54.456;9.752;2022-08-03T15:35:35;30.50;99.90
22442;DHT22;11388;54.456;9.752;2022-08-03T15:38:06;30.80;99.90
22442;DHT22;11388;54.456;9.752;2022-08-03T15:40:53;30.80;99.90
22442;DHT22;11388;54.456;9.752;2022-08-03T15:43:52;30.90;99.90
22442;DHT22;11388;54.456;9.752;2022-08-03T15:46:20;30.90;99.90
22442;DHT22;11388;54.456;9.752;2022-08-03T15:48:54;30.80;99.90
22442;DHT22;11388;54.456;9.752;2022-08-03T15:52:11;30.70;99.90
22442;DHT22;11388;54.456;9.752;2022-08-03T15:55:14;30.40;99.90
22442;DHT22;11388;54.456;9.752;2022-08-03T15:57:42;30.30;99.90
22442;DHT22;11388;54.456;9.752;2022-08-03T16:00:11;30.30;99.90
22442;DHT22;11388;54.456;9.752;2022-08-03T16:02:37;30.40;99.90
22442;DHT22;11388;54.456;9.752;2022-08-03T16:05:03;29.90;99.90
22442;DHT22;11388;54.456;9.752;2022-08-03T16:07:29;29.90;99.90
22442;DHT22;11388;54.456;9.752;2022-08-03T16:10:17;29.90;99.90
22442;DHT22;11388;54.456;9.752;2022-08-03T16:12:43;29.90;99.90
22442;DHT22;11388;54.456;9.752;2022-08-03T16:15:10;29.80;99.90
22442;DHT22;11388;54.456;9.752;2022-08-03T16:17:37;30.00;99.90
22442;DHT22;11388;54.456;9.752;2022-08-03T16:20:06;30.20;99.90
22442;DHT22;11388;54.456;9.752;2022-08-03T16:22:33;30.20;99.90
22442;DHT22;11388;54.456;9.752;2022-08-03T16:24:59;30.20;99.90
22442;DHT22;11388;54.456;9.752;2022-08-03T16:27:25;30.00;99.90
22442;DHT22;11388;54.456;9.752;2022-08-03T16:29:51;30.40;99.90
22442;DHT22;11388;54.456;9.752;2022-08-03T16:32:17;30.50;99.90
22442;DHT22;11388;54.456;9.752;2022-08-03T16:34:43;30.50;99.90
22442;DHT22;11388;54.456;9.752;2022-08-03T16:37:09;30.50;99.90
22442;DHT22;11388;54.456;9.752;2022-08-03T16:39:35;30.80;99.90
22442;DHT22;11388;54.456;9.752;2022-08-03T16:42:01;30.80;99.90
22442;DHT22;11388;54.456;9.752;2022-08-03T16:44:30;31.00;99.90
22442;DHT22;11388;54.456;9.752;2022-08-03T16:46:59;30.90;99.90
22442;DHT22;11388;54.456;9.752;2022-08-03T16:49:24;31.00;99.90
22442;DHT22;11388;54.456;9.752;2022-08-03T16:51:50;31.00;99.90